New Waterford, Canada
Current Conditions -  °F | °C
As of 6:00 AM on Saturday 22 Nov 2014 (Local Time) from CYQY Reporting Station
Few Clouds Few Clouds  
Wind Chill: 12°   Ceiling: Unl
Heat Index: 25°   Visibility: 15mi
Dew Point: 18°   Wind: 16mph
Humidity: 74%   Direction: 300°WNW
Pressure: 29.92"   Gusts: 29mph
Location:  46.25°N, 60.09°W
Report Text: CYQY 221000Z 30014G25KT 15SM FEW030 M04/M08 A2992 RMK SC1 SLP134
Loading
Personal Weather Stations






























Interactive Weather Map New forecast layout! Learn more

10-Day Weather Forecast

Advertisements
Track Severe Weather on mobile